sensor_id;sensor_type;location;lat;lon;timestamp;P1;durP1;ratioP1;P2;durP2;ratioP2
8819;SDS011;4446;50.876;4.736;2024-02-16T00:00:19;2.20;;;2.10;;
8819;SDS011;4446;50.876;4.736;2024-02-16T00:02:46;2.90;;;2.60;;
8819;SDS011;4446;50.876;4.736;2024-02-16T00:05:13;2.40;;;2.20;;
8819;SDS011;4446;50.876;4.736;2024-02-16T00:07:39;2.35;;;2.15;;
8819;SDS011;4446;50.876;4.736;2024-02-16T00:10:07;2.40;;;2.17;;
8819;SDS011;4446;50.876;4.736;2024-02-16T00:12:36;15.02;;;3.72;;
8819;SDS011;4446;50.876;4.736;2024-02-16T00:15:05;2.45;;;2.25;;
8819;SDS011;4446;50.876;4.736;2024-02-16T00:17:34;2.53;;;2.22;;
8819;SDS011;4446;50.876;4.736;2024-02-16T00:20:02;2.63;;;2.10;;
8819;SDS011;4446;50.876;4.736;2024-02-16T00:22:32;2.80;;;2.28;;
8819;SDS011;4446;50.876;4.736;2024-02-16T00:24:59;3.35;;;2.40;;
8819;SDS011;4446;50.876;4.736;2024-02-16T00:27:26;3.47;;;2.20;;
8819;SDS011;4446;50.876;4.736;2024-02-16T00:32:42;2.67;;;2.22;;
8819;SDS011;4446;50.876;4.736;2024-02-16T00:35:10;2.15;;;2.05;;
8819;SDS011;4446;50.876;4.736;2024-02-16T00:37:37;3.25;;;2.95;;
8819;SDS011;4446;50.876;4.736;2024-02-16T00:40:05;1.65;;;1.55;;
8819;SDS011;4446;50.876;4.736;2024-02-16T00:42:32;2.08;;;1.67;;
8819;SDS011;4446;50.876;4.736;2024-02-16T00:44:59;3.70;;;1.73;;
8819;SDS011;4446;50.876;4.736;2024-02-16T00:47:26;2.42;;;1.70;;
8819;SDS011;4446;50.876;4.736;2024-02-16T00:49:55;2.28;;;1.80;;
8819;SDS011;4446;50.876;4.736;2024-02-16T00:52:22;2.42;;;1.65;;
8819;SDS011;4446;50.876;4.736;2024-02-16T00:54:49;1.70;;;1.60;;
8819;SDS011;4446;50.876;4.736;2024-02-16T00:57:16;2.40;;;1.50;;
8819;SDS011;4446;50.876;4.736;2024-02-16T00:59:43;2.17;;;1.52;;
8819;SDS011;4446;50.876;4.736;2024-02-16T01:02:29;3.15;;;1.80;;
8819;SDS011;4446;50.876;4.736;2024-02-16T01:04:58;2.15;;;1.63;;
8819;SDS011;4446;50.876;4.736;2024-02-16T01:07:27;2.45;;;1.60;;
8819;SDS011;4446;50.876;4.736;2024-02-16T01:09:54;2.17;;;1.58;;
8819;SDS011;4446;50.876;4.736;2024-02-16T01:15:14;2.75;;;1.70;;
8819;SDS011;4446;50.876;4.736;2024-02-16T01:17:41;1.98;;;1.75;;
8819;SDS011;4446;50.876;4.736;2024-02-16T01:20:27;2.42;;;1.60;;
8819;SDS011;4446;50.876;4.736;2024-02-16T01:22:56;3.85;;;2.10;;
8819;SDS011;4446;50.876;4.736;2024-02-16T01:25:23;3.20;;;2.80;;
8819;SDS011;4446;50.876;4.736;2024-02-16T01:27:50;2.65;;;2.20;;
8819;SDS011;4446;50.876;4.736;2024-02-16T01:30:17;2.60;;;2.22;;
8819;SDS011;4446;50.876;4.736;2024-02-16T01:32:45;2.30;;;2.10;;
8819;SDS011;4446;50.876;4.736;2024-02-16T01:35:12;3.28;;;2.25;;
8819;SDS011;4446;50.876;4.736;2024-02-16T01:37:41;2.63;;;2.28;;
8819;SDS011;4446;50.876;4.736;2024-02-16T01:40:09;2.75;;;2.30;;
8819;SDS011;4446;50.876;4.736;2024-02-16T01:42:42;3.70;;;2.10;;
8819;SDS011;4446;50.876;4.736;2024-02-16T01:45:09;2.15;;;1.95;;
8819;SDS011;4446;50.876;4.736;2024-02-16T01:47:37;2.60;;;2.40;;
8819;SDS011;4446;50.876;4.736;2024-02-16T01:50:05;4.00;;;2.50;;
8819;SDS011;4446;50.876;4.736;2024-02-16T01:52:33;2.35;;;2.03;;
8819;SDS011;4446;50.876;4.736;2024-02-16T01:55:03;2.90;;;2.40;;
8819;SDS011;4446;50.876;4.736;2024-02-16T01:57:32;2.15;;;1.98;;
8819;SDS011;4446;50.876;4.736;2024-02-16T02:00:20;3.08;;;2.20;;
8819;SDS011;4446;50.876;4.736;2024-02-16T02:02:47;2.75;;;2.25;;
8819;SDS011;4446;50.876;4.736;2024-02-16T02:05:15;3.53;;;2.50;;
8819;SDS011;4446;50.876;4.736;2024-02-16T02:07:42;2.50;;;2.28;;
8819;SDS011;4446;50.876;4.736;2024-02-16T02:10:10;3.28;;;2.30;;
8819;SDS011;4446;50.876;4.736;2024-02-16T02:12:38;2.50;;;2.30;;
8819;SDS011;4446;50.876;4.736;2024-02-16T02:15:07;2.45;;;2.25;;
8819;SDS011;4446;50.876;4.736;2024-02-16T02:17:35;2.75;;;2.30;;
8819;SDS011;4446;50.876;4.736;2024-02-16T02:20:02;3.83;;;2.50;;
8819;SDS011;4446;50.876;4.736;2024-02-16T02:22:34;2.65;;;2.38;;
8819;SDS011;4446;50.876;4.736;2024-02-16T02:25:01;2.33;;;2.00;;
8819;SDS011;4446;50.876;4.736;2024-02-16T02:27:28;2.30;;;2.10;;
8819;SDS011;4446;50.876;4.736;2024-02-16T02:29:54;3.22;;;2.40;;
8819;SDS011;4446;50.876;4.736;2024-02-16T02:32:22;2.15;;;1.95;;
8819;SDS011;4446;50.876;4.736;2024-02-16T02:34:48;3.33;;;2.13;;
8819;SDS011;4446;50.876;4.736;2024-02-16T02:37:15;2.33;;;2.10;;
8819;SDS011;4446;50.876;4.736;2024-02-16T02:39:44;2.60;;;2.33;;
8819;SDS011;4446;50.876;4.736;2024-02-16T02:42:11;2.65;;;2.25;;
8819;SDS011;4446;50.876;4.736;2024-02-16T02:44:37;4.75;;;2.35;;
8819;SDS011;4446;50.876;4.736;2024-02-16T02:47:05;3.03;;;2.00;;
8819;SDS011;4446;50.876;4.736;2024-02-16T02:49:32;2.40;;;2.20;;
8819;SDS011;4446;50.876;4.736;2024-02-16T02:52:00;2.42;;;2.22;;
8819;SDS011;4446;50.876;4.736;2024-02-16T02:54:27;3.42;;;2.40;;
8819;SDS011;4446;50.876;4.736;2024-02-16T02:59:41;2.80;;;2.30;;
8819;SDS011;4446;50.876;4.736;2024-02-16T03:02:07;2.47;;;2.28;;
8819;SDS011;4446;50.876;4.736;2024-02-16T03:04:35;3.50;;;2.13;;
8819;SDS011;4446;50.876;4.736;2024-02-16T03:07:01;2.72;;;2.30;;
8819;SDS011;4446;50.876;4.736;2024-02-16T03:09:28;2.33;;;2.10;;
8819;SDS011;4446;50.876;4.736;2024-02-16T03:11:55;2.50;;;2.30;;
8819;SDS011;4446;50.876;4.736;2024-02-16T03:14:24;4.05;;;1.90;;
8819;SDS011;4446;50.876;4.736;2024-02-16T03:16:50;2.65;;;2.30;;
8819;SDS011;4446;50.876;4.736;2024-02-16T03:19:18;2.58;;;2.08;;
8819;SDS011;4446;50.876;4.736;2024-02-16T03:21:46;3.03;;;2.28;;
8819;SDS011;4446;50.876;4.736;2024-02-16T03:24:13;3.72;;;2.65;;
8819;SDS011;4446;50.876;4.736;2024-02-16T03:26:40;3.33;;;2.60;;
8819;SDS011;4446;50.876;4.736;2024-02-16T03:29:07;4.13;;;2.63;;
8819;SDS011;4446;50.876;4.736;2024-02-16T03:31:35;4.30;;;2.10;;
8819;SDS011;4446;50.876;4.736;2024-02-16T03:34:03;3.58;;;2.22;;
8819;SDS011;4446;50.876;4.736;2024-02-16T03:39:34;2.30;;;2.10;;
8819;SDS011;4446;50.876;4.736;2024-02-16T03:42:01;3.00;;;2.20;;
8819;SDS011;4446;50.876;4.736;2024-02-16T03:44:29;2.40;;;2.20;;
8819;SDS011;4446;50.876;4.736;2024-02-16T03:46:57;2.60;;;2.40;;
8819;SDS011;4446;50.876;4.736;2024-02-16T03:49:25;2.58;;;2.22;;
8819;SDS011;4446;50.876;4.736;2024-02-16T03:51:53;2.42;;;2.22;;
8819;SDS011;4446;50.876;4.736;2024-02-16T03:54:20;2.10;;;1.95;;
8819;SDS011;4446;50.876;4.736;2024-02-16T03:56:46;3.65;;;2.55;;
8819;SDS011;4446;50.876;4.736;2024-02-16T03:59:13;3.67;;;2.63;;
8819;SDS011;4446;50.876;4.736;2024-02-16T04:01:40;4.10;;;2.30;;
8819;SDS011;4446;50.876;4.736;2024-02-16T04:04:09;2.30;;;2.10;;
8819;SDS011;4446;50.876;4.736;2024-02-16T04:06:36;3.38;;;2.30;;
8819;SDS011;4446;50.876;4.736;2024-02-16T04:09:02;2.80;;;2.38;;
8819;SDS011;4446;50.876;4.736;2024-02-16T04:11:31;5.30;;;2.50;;
8819;SDS011;4446;50.876;4.736;2024-02-16T04:13:58;4.95;;;2.70;;
8819;SDS011;4446;50.876;4.736;2024-02-16T04:16:25;4.35;;;2.70;;
8819;SDS011;4446;50.876;4.736;2024-02-16T04:18:52;2.40;;;2.20;;
8819;SDS011;4446;50.876;4.736;2024-02-16T04:21:20;5.00;;;2.30;;
8819;SDS011;4446;50.876;4.736;2024-02-16T04:24:05;2.53;;;2.33;;
8819;SDS011;4446;50.876;4.736;2024-02-16T04:26:33;3.63;;;2.40;;
8819;SDS011;4446;50.876;4.736;2024-02-16T04:28:59;4.18;;;2.70;;
8819;SDS011;4446;50.876;4.736;2024-02-16T04:31:26;3.05;;;2.33;;
8819;SDS011;4446;50.876;4.736;2024-02-16T04:33:53;2.78;;;2.30;;
8819;SDS011;4446;50.876;4.736;2024-02-16T04:36:21;5.78;;;2.67;;
8819;SDS011;4446;50.876;4.736;2024-02-16T04:38:48;6.45;;;2.33;;
8819;SDS011;4446;50.876;4.736;2024-02-16T04:41:16;3.47;;;2.70;;
8819;SDS011;4446;50.876;4.736;2024-02-16T04:43:42;2.67;;;2.40;;
8819;SDS011;4446;50.876;4.736;2024-02-16T04:48:55;2.67;;;2.38;;
8819;SDS011;4446;50.876;4.736;2024-02-16T04:51:23;2.80;;;2.58;;
8819;SDS011;4446;50.876;4.736;2024-02-16T04:53:50;2.67;;;2.45;;
8819;SDS011;4446;50.876;4.736;2024-02-16T04:56:17;3.70;;;2.63;;
8819;SDS011;4446;50.876;4.736;2024-02-16T04:58:44;4.60;;;2.47;;
8819;SDS011;4446;50.876;4.736;2024-02-16T05:01:12;4.35;;;2.78;;
8819;SDS011;4446;50.876;4.736;2024-02-16T05:03:58;3.58;;;2.42;;
8819;SDS011;4446;50.876;4.736;2024-02-16T05:06:28;3.00;;;2.50;;
8819;SDS011;4446;50.876;4.736;2024-02-16T05:08:56;3.17;;;2.42;;
8819;SDS011;4446;50.876;4.736;2024-02-16T05:11:23;3.25;;;2.20;;
8819;SDS011;4446;50.876;4.736;2024-02-16T05:13:50;2.72;;;2.30;;
8819;SDS011;4446;50.876;4.736;2024-02-16T05:16:17;2.53;;;2.10;;
8819;SDS011;4446;50.876;4.736;2024-02-16T05:18:44;4.38;;;2.47;;
8819;SDS011;4446;50.876;4.736;2024-02-16T05:21:11;2.50;;;2.17;;
8819;SDS011;4446;50.876;4.736;2024-02-16T05:23:39;4.20;;;2.67;;
8819;SDS011;4446;50.876;4.736;2024-02-16T05:26:06;3.50;;;2.33;;
8819;SDS011;4446;50.876;4.736;2024-02-16T05:28:33;6.25;;;2.55;;
8819;SDS011;4446;50.876;4.736;2024-02-16T05:31:00;3.88;;;2.38;;
8819;SDS011;4446;50.876;4.736;2024-02-16T05:33:39;4.05;;;2.25;;
8819;SDS011;4446;50.876;4.736;2024-02-16T05:36:06;3.25;;;2.67;;
8819;SDS011;4446;50.876;4.736;2024-02-16T05:38:34;4.15;;;2.50;;
8819;SDS011;4446;50.876;4.736;2024-02-16T05:41:07;4.68;;;2.80;;
8819;SDS011;4446;50.876;4.736;2024-02-16T05:43:34;4.90;;;2.70;;
8819;SDS011;4446;50.876;4.736;2024-02-16T05:46:01;9.57;;;3.83;;
8819;SDS011;4446;50.876;4.736;2024-02-16T05:48:28;3.40;;;2.33;;
8819;SDS011;4446;50.876;4.736;2024-02-16T05:50:56;2.38;;;2.17;;
8819;SDS011;4446;50.876;4.736;2024-02-16T05:56:13;4.45;;;2.17;;
8819;SDS011;4446;50.876;4.736;2024-02-16T05:58:58;3.03;;;2.22;;
8819;SDS011;4446;50.876;4.736;2024-02-16T06:01:25;2.60;;;2.40;;
8819;SDS011;4446;50.876;4.736;2024-02-16T06:03:53;6.05;;;2.40;;
8819;SDS011;4446;50.876;4.736;2024-02-16T06:06:20;2.50;;;2.30;;
8819;SDS011;4446;50.876;4.736;2024-02-16T06:08:47;12.30;;;3.10;;
8819;SDS011;4446;50.876;4.736;2024-02-16T06:11:15;3.85;;;3.03;;
8819;SDS011;4446;50.876;4.736;2024-02-16T06:13:42;3.03;;;2.45;;
8819;SDS011;4446;50.876;4.736;2024-02-16T06:18:54;3.90;;;2.63;;
8819;SDS011;4446;50.876;4.736;2024-02-16T06:21:21;5.43;;;2.67;;
8819;SDS011;4446;50.876;4.736;2024-02-16T06:23:48;3.95;;;2.58;;
8819;SDS011;4446;50.876;4.736;2024-02-16T06:26:16;2.78;;;2.20;;
8819;SDS011;4446;50.876;4.736;2024-02-16T06:28:45;3.83;;;2.75;;
8819;SDS011;4446;50.876;4.736;2024-02-16T06:31:30;5.05;;;2.65;;
8819;SDS011;4446;50.876;4.736;2024-02-16T06:33:58;4.03;;;2.38;;
8819;SDS011;4446;50.876;4.736;2024-02-16T06:36:25;2.55;;;2.22;;
8819;SDS011;4446;50.876;4.736;2024-02-16T06:38:51;4.25;;;2.47;;
8819;SDS011;4446;50.876;4.736;2024-02-16T06:41:20;4.00;;;2.70;;
8819;SDS011;4446;50.876;4.736;2024-02-16T06:43:47;5.85;;;2.55;;
8819;SDS011;4446;50.876;4.736;2024-02-16T06:46:32;3.13;;;2.40;;
8819;SDS011;4446;50.876;4.736;2024-02-16T06:48:59;5.13;;;2.30;;
8819;SDS011;4446;50.876;4.736;2024-02-16T06:54:12;4.25;;;2.55;;
8819;SDS011;4446;50.876;4.736;2024-02-16T06:56:41;6.82;;;2.72;;
8819;SDS011;4446;50.876;4.736;2024-02-16T06:59:07;3.60;;;2.53;;
8819;SDS011;4446;50.876;4.736;2024-02-16T07:01:52;3.25;;;2.63;;
8819;SDS011;4446;50.876;4.736;2024-02-16T07:04:19;3.60;;;2.53;;
8819;SDS011;4446;50.876;4.736;2024-02-16T07:06:46;4.60;;;2.28;;
8819;SDS011;4446;50.876;4.736;2024-02-16T07:09:13;2.70;;;2.33;;
8819;SDS011;4446;50.876;4.736;2024-02-16T07:11:42;3.55;;;2.55;;
8819;SDS011;4446;50.876;4.736;2024-02-16T07:14:11;3.83;;;2.58;;
8819;SDS011;4446;50.876;4.736;2024-02-16T07:16:38;4.07;;;2.30;;
8819;SDS011;4446;50.876;4.736;2024-02-16T07:19:05;8.23;;;2.95;;
8819;SDS011;4446;50.876;4.736;2024-02-16T07:21:32;6.47;;;2.85;;
8819;SDS011;4446;50.876;4.736;2024-02-16T07:23:59;3.22;;;2.28;;
8819;SDS011;4446;50.876;4.736;2024-02-16T07:26:26;7.45;;;3.25;;
8819;SDS011;4446;50.876;4.736;2024-02-16T07:28:54;4.93;;;2.40;;
8819;SDS011;4446;50.876;4.736;2024-02-16T07:31:21;3.83;;;2.28;;
8819;SDS011;4446;50.876;4.736;2024-02-16T07:33:48;4.43;;;2.63;;
8819;SDS011;4446;50.876;4.736;2024-02-16T07:36:15;2.28;;;2.03;;
8819;SDS011;4446;50.876;4.736;2024-02-16T07:38:44;4.53;;;2.75;;
8819;SDS011;4446;50.876;4.736;2024-02-16T07:41:11;5.85;;;2.67;;
8819;SDS011;4446;50.876;4.736;2024-02-16T07:43:38;2.85;;;2.10;;
8819;SDS011;4446;50.876;4.736;2024-02-16T07:48:52;3.58;;;2.22;;
8819;SDS011;4446;50.876;4.736;2024-02-16T07:51:19;6.60;;;2.60;;
8819;SDS011;4446;50.876;4.736;2024-02-16T07:53:46;3.65;;;2.45;;
8819;SDS011;4446;50.876;4.736;2024-02-16T07:56:33;3.30;;;2.70;;
8819;SDS011;4446;50.876;4.736;2024-02-16T07:59:00;4.00;;;2.40;;
8819;SDS011;4446;50.876;4.736;2024-02-16T08:01:28;4.07;;;2.10;;
8819;SDS011;4446;50.876;4.736;2024-02-16T08:04:13;5.68;;;2.38;;
8819;SDS011;4446;50.876;4.736;2024-02-16T08:06:40;4.80;;;2.88;;
8819;SDS011;4446;50.876;4.736;2024-02-16T08:09:07;5.00;;;2.80;;
8819;SDS011;4446;50.876;4.736;2024-02-16T08:11:52;4.13;;;2.90;;
8819;SDS011;4446;50.876;4.736;2024-02-16T08:14:19;2.97;;;2.65;;
8819;SDS011;4446;50.876;4.736;2024-02-16T08:16:48;3.88;;;2.50;;
8819;SDS011;4446;50.876;4.736;2024-02-16T08:19:15;3.67;;;3.03;;
8819;SDS011;4446;50.876;4.736;2024-02-16T08:22:00;4.00;;;3.60;;
8819;SDS011;4446;50.876;4.736;2024-02-16T08:24:28;4.90;;;3.67;;
8819;SDS011;4446;50.876;4.736;2024-02-16T08:26:55;7.60;;;4.00;;
8819;SDS011;4446;50.876;4.736;2024-02-16T08:29:22;5.10;;;3.47;;
8819;SDS011;4446;50.876;4.736;2024-02-16T08:31:52;4.25;;;3.65;;
8819;SDS011;4446;50.876;4.736;2024-02-16T08:34:19;4.47;;;3.70;;
8819;SDS011;4446;50.876;4.736;2024-02-16T08:36:46;5.65;;;3.80;;
8819;SDS011;4446;50.876;4.736;2024-02-16T08:39:13;4.47;;;3.10;;
8819;SDS011;4446;50.876;4.736;2024-02-16T08:41:41;4.72;;;3.30;;
8819;SDS011;4446;50.876;4.736;2024-02-16T08:44:09;4.50;;;3.72;;
8819;SDS011;4446;50.876;4.736;2024-02-16T08:46:36;4.28;;;3.80;;
8819;SDS011;4446;50.876;4.736;2024-02-16T08:49:04;6.70;;;3.60;;
8819;SDS011;4446;50.876;4.736;2024-02-16T08:51:32;3.80;;;3.40;;
8819;SDS011;4446;50.876;4.736;2024-02-16T08:53:59;8.18;;;4.13;;
8819;SDS011;4446;50.876;4.736;2024-02-16T08:56:26;3.50;;;3.17;;
8819;SDS011;4446;50.876;4.736;2024-02-16T08:58:53;7.78;;;3.55;;
8819;SDS011;4446;50.876;4.736;2024-02-16T09:01:29;4.60;;;3.42;;
8819;SDS011;4446;50.876;4.736;2024-02-16T09:03:56;4.40;;;3.35;;
8819;SDS011;4446;50.876;4.736;2024-02-16T09:06:25;5.97;;;3.63;;
8819;SDS011;4446;50.876;4.736;2024-02-16T09:08:52;3.90;;;3.13;;
8819;SDS011;4446;50.876;4.736;2024-02-16T09:11:19;6.28;;;3.65;;
8819;SDS011;4446;50.876;4.736;2024-02-16T09:13:46;4.63;;;3.60;;
8819;SDS011;4446;50.876;4.736;2024-02-16T09:16:13;4.35;;;3.38;;
8819;SDS011;4446;50.876;4.736;2024-02-16T09:18:40;4.70;;;3.13;;
8819;SDS011;4446;50.876;4.736;2024-02-16T09:21:07;5.13;;;3.08;;
8819;SDS011;4446;50.876;4.736;2024-02-16T09:23:37;5.22;;;3.33;;
8819;SDS011;4446;50.876;4.736;2024-02-16T09:26:04;3.65;;;3.03;;
8819;SDS011;4446;50.876;4.736;2024-02-16T09:28:31;4.43;;;3.50;;
8819;SDS011;4446;50.876;4.736;2024-02-16T09:30:58;4.03;;;3.05;;
8819;SDS011;4446;50.876;4.736;2024-02-16T09:33:25;5.55;;;3.70;;
8819;SDS011;4446;50.876;4.736;2024-02-16T09:35:53;7.93;;;4.75;;
8819;SDS011;4446;50.876;4.736;2024-02-16T09:38:20;4.50;;;3.63;;
8819;SDS011;4446;50.876;4.736;2024-02-16T09:40:49;4.72;;;3.60;;
8819;SDS011;4446;50.876;4.736;2024-02-16T09:43:26;4.85;;;3.70;;
8819;SDS011;4446;50.876;4.736;2024-02-16T09:45:54;6.13;;;3.97;;
8819;SDS011;4446;50.876;4.736;2024-02-16T09:48:24;6.82;;;3.75;;
8819;SDS011;4446;50.876;4.736;2024-02-16T09:50:52;4.32;;;3.58;;
8819;SDS011;4446;50.876;4.736;2024-02-16T09:53:20;4.10;;;3.28;;
8819;SDS011;4446;50.876;4.736;2024-02-16T09:55:51;6.63;;;3.70;;
8819;SDS011;4446;50.876;4.736;2024-02-16T09:58:19;4.68;;;3.45;;
8819;SDS011;4446;50.876;4.736;2024-02-16T10:00:50;5.93;;;3.25;;
8819;SDS011;4446;50.876;4.736;2024-02-16T10:03:24;6.78;;;3.90;;
8819;SDS011;4446;50.876;4.736;2024-02-16T10:05:51;5.82;;;3.70;;
8819;SDS011;4446;50.876;4.736;2024-02-16T10:08:19;4.80;;;3.72;;
8819;SDS011;4446;50.876;4.736;2024-02-16T10:10:46;6.25;;;3.95;;
8819;SDS011;4446;50.876;4.736;2024-02-16T10:13:15;7.07;;;3.65;;
8819;SDS011;4446;50.876;4.736;2024-02-16T10:15:42;5.95;;;3.65;;
8819;SDS011;4446;50.876;4.736;2024-02-16T10:18:09;5.60;;;3.40;;
8819;SDS011;4446;50.876;4.736;2024-02-16T10:20:37;5.75;;;4.35;;
8819;SDS011;4446;50.876;4.736;2024-02-16T10:23:05;5.25;;;3.55;;
8819;SDS011;4446;50.876;4.736;2024-02-16T10:25:32;5.53;;;3.50;;
8819;SDS011;4446;50.876;4.736;2024-02-16T10:28:01;5.47;;;3.53;;
8819;SDS011;4446;50.876;4.736;2024-02-16T10:30:34;5.22;;;3.35;;
8819;SDS011;4446;50.876;4.736;2024-02-16T10:33:04;5.97;;;3.58;;
8819;SDS011;4446;50.876;4.736;2024-02-16T10:35:32;4.38;;;3.03;;
8819;SDS011;4446;50.876;4.736;2024-02-16T10:38:02;9.25;;;4.40;;
8819;SDS011;4446;50.876;4.736;2024-02-16T10:40:32;5.82;;;4.25;;
8819;SDS011;4446;50.876;4.736;2024-02-16T10:43:00;4.57;;;3.67;;
8819;SDS011;4446;50.876;4.736;2024-02-16T10:45:33;10.95;;;4.03;;
8819;SDS011;4446;50.876;4.736;2024-02-16T10:48:01;6.68;;;3.90;;
8819;SDS011;4446;50.876;4.736;2024-02-16T10:50:29;6.90;;;4.35;;
8819;SDS011;4446;50.876;4.736;2024-02-16T10:52:58;6.70;;;4.10;;
8819;SDS011;4446;50.876;4.736;2024-02-16T10:55:30;5.80;;;3.70;;
8819;SDS011;4446;50.876;4.736;2024-02-16T10:57:57;4.93;;;3.70;;
8819;SDS011;4446;50.876;4.736;2024-02-16T11:00:25;8.05;;;4.38;;
8819;SDS011;4446;50.876;4.736;2024-02-16T11:02:54;6.45;;;3.55;;
8819;SDS011;4446;50.876;4.736;2024-02-16T11:05:33;6.25;;;3.50;;
8819;SDS011;4446;50.876;4.736;2024-02-16T11:08:01;7.57;;;3.88;;
8819;SDS011;4446;50.876;4.736;2024-02-16T11:10:29;5.88;;;3.70;;
8819;SDS011;4446;50.876;4.736;2024-02-16T11:13:01;6.78;;;4.03;;
8819;SDS011;4446;50.876;4.736;2024-02-16T11:15:30;9.23;;;4.00;;
8819;SDS011;4446;50.876;4.736;2024-02-16T11:17:59;8.77;;;4.72;;
8819;SDS011;4446;50.876;4.736;2024-02-16T11:20:27;7.65;;;3.47;;
8819;SDS011;4446;50.876;4.736;2024-02-16T11:23:04;7.75;;;4.18;;
8819;SDS011;4446;50.876;4.736;2024-02-16T11:25:32;5.22;;;4.13;;
8819;SDS011;4446;50.876;4.736;2024-02-16T11:27:59;5.70;;;4.18;;
8819;SDS011;4446;50.876;4.736;2024-02-16T11:30:27;9.25;;;4.22;;
8819;SDS011;4446;50.876;4.736;2024-02-16T11:32:54;6.95;;;3.80;;
8819;SDS011;4446;50.876;4.736;2024-02-16T11:35:23;7.35;;;3.90;;
8819;SDS011;4446;50.876;4.736;2024-02-16T11:37:50;6.13;;;4.35;;
8819;SDS011;4446;50.876;4.736;2024-02-16T11:40:17;4.97;;;4.03;;
8819;SDS011;4446;50.876;4.736;2024-02-16T11:42:44;9.48;;;4.85;;
8819;SDS011;4446;50.876;4.736;2024-02-16T11:45:12;7.07;;;4.18;;
8819;SDS011;4446;50.876;4.736;2024-02-16T11:47:40;6.80;;;4.35;;
8819;SDS011;4446;50.876;4.736;2024-02-16T11:50:08;5.32;;;4.38;;
8819;SDS011;4446;50.876;4.736;2024-02-16T11:52:37;8.13;;;4.32;;
8819;SDS011;4446;50.876;4.736;2024-02-16T11:55:07;6.28;;;4.28;;
8819;SDS011;4446;50.876;4.736;2024-02-16T11:57:36;10.55;;;5.05;;
8819;SDS011;4446;50.876;4.736;2024-02-16T12:00:04;6.88;;;4.38;;
8819;SDS011;4446;50.876;4.736;2024-02-16T12:02:35;8.63;;;4.78;;
8819;SDS011;4446;50.876;4.736;2024-02-16T12:05:03;8.88;;;4.63;;
8819;SDS011;4446;50.876;4.736;2024-02-16T12:07:30;8.18;;;4.80;;
8819;SDS011;4446;50.876;4.736;2024-02-16T12:10:00;10.60;;;4.88;;
8819;SDS011;4446;50.876;4.736;2024-02-16T12:12:30;10.40;;;4.38;;
8819;SDS011;4446;50.876;4.736;2024-02-16T12:14:58;9.68;;;5.30;;
8819;SDS011;4446;50.876;4.736;2024-02-16T12:17:25;10.48;;;5.63;;
8819;SDS011;4446;50.876;4.736;2024-02-16T12:19:52;13.55;;;5.75;;
8819;SDS011;4446;50.876;4.736;2024-02-16T12:22:19;12.30;;;5.68;;
8819;SDS011;4446;50.876;4.736;2024-02-16T12:24:47;8.77;;;5.90;;
8819;SDS011;4446;50.876;4.736;2024-02-16T12:27:16;10.80;;;5.95;;
8819;SDS011;4446;50.876;4.736;2024-02-16T12:29:43;8.98;;;5.45;;
8819;SDS011;4446;50.876;4.736;2024-02-16T12:32:10;7.97;;;5.32;;
8819;SDS011;4446;50.876;4.736;2024-02-16T12:34:37;7.68;;;5.30;;
8819;SDS011;4446;50.876;4.736;2024-02-16T12:37:04;9.60;;;6.00;;
8819;SDS011;4446;50.876;4.736;2024-02-16T12:39:33;8.65;;;5.68;;
8819;SDS011;4446;50.876;4.736;2024-02-16T12:42:00;10.50;;;5.40;;
8819;SDS011;4446;50.876;4.736;2024-02-16T12:44:29;6.80;;;5.55;;
8819;SDS011;4446;50.876;4.736;2024-02-16T12:46:56;6.80;;;5.28;;
8819;SDS011;4446;50.876;4.736;2024-02-16T12:49:23;5.75;;;4.60;;
8819;SDS011;4446;50.876;4.736;2024-02-16T12:51:51;5.13;;;4.63;;
8819;SDS011;4446;50.876;4.736;2024-02-16T12:54:19;6.00;;;4.63;;
8819;SDS011;4446;50.876;4.736;2024-02-16T12:56:47;7.93;;;5.07;;
8819;SDS011;4446;50.876;4.736;2024-02-16T12:59:14;5.30;;;4.10;;
8819;SDS011;4446;50.876;4.736;2024-02-16T13:01:43;4.30;;;3.90;;
8819;SDS011;4446;50.876;4.736;2024-02-16T13:04:11;4.38;;;3.95;;
8819;SDS011;4446;50.876;4.736;2024-02-16T13:06:45;5.28;;;4.28;;
8819;SDS011;4446;50.876;4.736;2024-02-16T13:09:12;4.15;;;3.78;;
8819;SDS011;4446;50.876;4.736;2024-02-16T13:11:39;5.10;;;4.60;;
8819;SDS011;4446;50.876;4.736;2024-02-16T13:14:06;4.78;;;4.38;;
8819;SDS011;4446;50.876;4.736;2024-02-16T13:16:33;4.30;;;3.78;;
8819;SDS011;4446;50.876;4.736;2024-02-16T13:19:02;4.50;;;4.10;;
8819;SDS011;4446;50.876;4.736;2024-02-16T13:21:29;4.55;;;4.15;;
8819;SDS011;4446;50.876;4.736;2024-02-16T13:23:56;5.45;;;4.07;;
8819;SDS011;4446;50.876;4.736;2024-02-16T13:26:23;5.10;;;4.38;;
8819;SDS011;4446;50.876;4.736;2024-02-16T13:28:50;6.82;;;4.20;;
8819;SDS011;4446;50.876;4.736;2024-02-16T13:31:17;6.22;;;5.07;;
8819;SDS011;4446;50.876;4.736;2024-02-16T13:33:44;7.53;;;4.65;;
8819;SDS011;4446;50.876;4.736;2024-02-16T13:36:12;5.82;;;5.10;;
8819;SDS011;4446;50.876;4.736;2024-02-16T13:38:39;7.05;;;5.03;;
8819;SDS011;4446;50.876;4.736;2024-02-16T13:41:06;5.90;;;5.03;;
8819;SDS011;4446;50.876;4.736;2024-02-16T13:43:33;8.50;;;4.75;;
8819;SDS011;4446;50.876;4.736;2024-02-16T13:46:01;5.10;;;4.50;;
8819;SDS011;4446;50.876;4.736;2024-02-16T13:48:29;5.35;;;4.60;;
8819;SDS011;4446;50.876;4.736;2024-02-16T13:50:56;5.75;;;4.80;;
8819;SDS011;4446;50.876;4.736;2024-02-16T13:53:26;6.15;;;4.82;;
8819;SDS011;4446;50.876;4.736;2024-02-16T13:55:53;6.50;;;5.15;;
8819;SDS011;4446;50.876;4.736;2024-02-16T13:58:21;8.55;;;5.45;;
8819;SDS011;4446;50.876;4.736;2024-02-16T14:00:47;5.40;;;4.90;;
8819;SDS011;4446;50.876;4.736;2024-02-16T14:03:15;7.18;;;6.38;;
8819;SDS011;4446;50.876;4.736;2024-02-16T14:05:42;6.43;;;5.25;;
8819;SDS011;4446;50.876;4.736;2024-02-16T14:08:12;6.82;;;5.30;;
8819;SDS011;4446;50.876;4.736;2024-02-16T14:10:41;9.48;;;6.63;;
8819;SDS011;4446;50.876;4.736;2024-02-16T14:13:08;7.60;;;6.45;;
8819;SDS011;4446;50.876;4.736;2024-02-16T14:15:35;7.32;;;6.22;;
8819;SDS011;4446;50.876;4.736;2024-02-16T14:18:02;8.43;;;5.63;;
8819;SDS011;4446;50.876;4.736;2024-02-16T14:20:32;9.02;;;6.28;;
8819;SDS011;4446;50.876;4.736;2024-02-16T14:22:59;9.32;;;6.43;;
8819;SDS011;4446;50.876;4.736;2024-02-16T14:25:27;8.90;;;6.93;;
8819;SDS011;4446;50.876;4.736;2024-02-16T14:27:56;11.48;;;6.78;;
8819;SDS011;4446;50.876;4.736;2024-02-16T14:30:23;9.38;;;6.57;;
8819;SDS011;4446;50.876;4.736;2024-02-16T14:32:50;10.63;;;7.15;;
8819;SDS011;4446;50.876;4.736;2024-02-16T14:35:17;10.05;;;6.70;;
8819;SDS011;4446;50.876;4.736;2024-02-16T14:37:44;10.00;;;6.82;;
8819;SDS011;4446;50.876;4.736;2024-02-16T14:40:11;11.07;;;6.63;;
8819;SDS011;4446;50.876;4.736;2024-02-16T14:42:38;9.10;;;6.72;;
8819;SDS011;4446;50.876;4.736;2024-02-16T14:45:07;9.02;;;6.68;;
8819;SDS011;4446;50.876;4.736;2024-02-16T14:47:44;9.20;;;7.10;;
8819;SDS011;4446;50.876;4.736;2024-02-16T14:50:11;8.55;;;6.35;;
8819;SDS011;4446;50.876;4.736;2024-02-16T14:52:38;9.38;;;6.65;;
8819;SDS011;4446;50.876;4.736;2024-02-16T14:55:05;8.77;;;6.53;;
8819;SDS011;4446;50.876;4.736;2024-02-16T14:57:35;8.95;;;6.13;;
8819;SDS011;4446;50.876;4.736;2024-02-16T15:00:02;7.57;;;6.07;;
8819;SDS011;4446;50.876;4.736;2024-02-16T15:02:31;7.30;;;5.40;;
8819;SDS011;4446;50.876;4.736;2024-02-16T15:04:58;7.43;;;5.22;;
8819;SDS011;4446;50.876;4.736;2024-02-16T15:07:25;5.53;;;4.75;;
8819;SDS011;4446;50.876;4.736;2024-02-16T15:09:52;6.70;;;5.13;;
8819;SDS011;4446;50.876;4.736;2024-02-16T15:12:19;6.28;;;5.18;;
8819;SDS011;4446;50.876;4.736;2024-02-16T15:14:46;6.05;;;5.10;;
8819;SDS011;4446;50.876;4.736;2024-02-16T15:17:14;6.70;;;5.13;;
8819;SDS011;4446;50.876;4.736;2024-02-16T15:19:43;7.43;;;5.15;;
8819;SDS011;4446;50.876;4.736;2024-02-16T15:22:10;8.50;;;5.95;;
8819;SDS011;4446;50.876;4.736;2024-02-16T15:24:37;7.18;;;5.80;;
8819;SDS011;4446;50.876;4.736;2024-02-16T15:27:05;10.57;;;7.43;;
8819;SDS011;4446;50.876;4.736;2024-02-16T15:29:32;9.50;;;6.95;;
8819;SDS011;4446;50.876;4.736;2024-02-16T15:31:59;12.70;;;8.85;;
8819;SDS011;4446;50.876;4.736;2024-02-16T15:34:26;14.82;;;10.38;;
8819;SDS011;4446;50.876;4.736;2024-02-16T15:36:54;16.48;;;9.98;;
8819;SDS011;4446;50.876;4.736;2024-02-16T15:39:23;14.63;;;8.98;;
8819;SDS011;4446;50.876;4.736;2024-02-16T15:41:51;15.73;;;10.45;;
8819;SDS011;4446;50.876;4.736;2024-02-16T15:44:20;13.50;;;8.75;;
8819;SDS011;4446;50.876;4.736;2024-02-16T15:46:47;12.32;;;8.25;;